Portada
METAR-TAF:

METAR-TAF

Aeropuertos :

Aeropuerto de Asturias

Avilés, España

latitud: 43-33N, longitud: 006-02W, altitud: 127 m

Observación

El informe se hizo hace 27 minutos, a las 09:00 UTC
Viento 8 kt del sur-sureste, variando entre este-sureste y sur
Temperatura 19°C
Humedad 52%
Presión 1013 hPa
Visibilidad 10 km o más
Escasas nubes a una altura de 3000 ft

METAR: LEAS 170900Z 16008KT 120V190 9999 FEW030 19/09 Q1013 NOSIG

Hora: 10:27 (09:27 UTC)

Pronóstico

El informe se hizo hace 1 hora y 27 minutos, a las 08:00 UTC
Pronóstico válido del 17 a las 09 UTC al 18 a las 09 UTC
Viento 9 kt del sur-sureste
Visibilidad 10 km o más
sin nubes por debajo de 1500 m y sin presencia de cumulonimbus.
Probabilidad 30% :
Temporalmente
del 17 a las 13 UTC al 17 a las 18 UTC
Viento 10 kt del este

TAF: LEAS 170800Z 1709/1809 16009KT CAVOK TX21/1715Z TN08/1806Z PROB30 TEMPO 1713/1718 10010KT

Observaciones y pronósticos meteorológicos de más de 4000 aeropuertos (mensajes METAR y TAF).

Los puntos amarillos y rojos representan las estaciones disponibles.

Ponga el ratón en el punto deseado para ver el nombre de la estación.

Haga clic para ver las observaciones y los pronósticos meteorológicos.

Para cambiar el mapa : haga clic en los botones verdes con una cruz de color negro para hacer un zoom, en el botón verde con un guión para alejar o en las flechas verdes para mapas adyacentes.


METAR-TAF: